createdAt,value
2023-04-15T00:01:10.117Z,6.37
2023-04-15T00:03:37.153Z,5.37
2023-04-15T00:06:04.049Z,5.77
2023-04-15T00:08:31.064Z,5.07
2023-04-15T00:11:02.783Z,5.20
2023-04-15T00:13:29.801Z,5.73
2023-04-15T00:15:56.593Z,4.60
2023-04-15T00:18:24.713Z,5.33
2023-04-15T00:20:51.541Z,4.90
2023-04-15T00:23:18.456Z,4.97
2023-04-15T00:25:45.514Z,6.03
2023-04-15T00:28:12.578Z,5.00
2023-04-15T00:30:39.458Z,5.53
2023-04-15T00:33:06.842Z,4.90
2023-04-15T00:35:34.840Z,4.77
2023-04-15T00:38:01.570Z,5.73
2023-04-15T00:40:28.243Z,5.53
2023-04-15T00:42:55.123Z,5.87
2023-04-15T00:45:21.854Z,5.03
2023-04-15T00:47:48.629Z,5.17
2023-04-15T00:50:15.391Z,5.50
2023-04-15T00:52:42.466Z,5.90
2023-04-15T00:55:09.434Z,6.63
2023-04-15T00:57:36.532Z,5.53
2023-04-15T01:00:04.872Z,5.13
2023-04-15T01:02:32.044Z,5.37
2023-04-15T01:04:58.842Z,5.17
2023-04-15T01:07:25.564Z,8.53
2023-04-15T01:09:52.867Z,6.00
2023-04-15T01:12:19.595Z,6.00
2023-04-15T01:15:14.752Z,5.10
2023-04-15T01:17:41.984Z,6.47
2023-04-15T01:20:10.528Z,5.70
2023-04-15T01:22:37.270Z,4.70
2023-04-15T01:25:12.401Z,9.00
2023-04-15T01:27:45.439Z,4.90
2023-04-15T01:30:12.346Z,5.93
2023-04-15T01:32:39.162Z,5.73
2023-04-15T01:35:06.592Z,5.60
2023-04-15T01:37:33.316Z,6.00
2023-04-15T01:39:59.984Z,6.30
2023-04-15T01:42:27.634Z,5.80
2023-04-15T01:44:54.467Z,6.33
2023-04-15T01:47:21.730Z,5.37
2023-04-15T01:49:49.004Z,5.57
2023-04-15T01:52:16.161Z,6.30
2023-04-15T01:54:42.923Z,5.67
2023-04-15T01:57:09.885Z,6.00
2023-04-15T01:59:37.147Z,5.97
2023-04-15T02:02:04.416Z,6.00
2023-04-15T02:04:31.730Z,6.80
2023-04-15T02:06:58.407Z,6.33
2023-04-15T02:09:25.091Z,5.47
2023-04-15T02:11:53.614Z,6.10
2023-04-15T02:14:20.994Z,6.67
2023-04-15T02:16:47.753Z,5.70
2023-04-15T02:19:15.524Z,4.77
2023-04-15T02:21:42.318Z,5.40
2023-04-15T02:24:09.079Z,5.53
2023-04-15T02:26:36.217Z,5.33
2023-04-15T02:29:03.062Z,6.50
2023-04-15T02:31:30.016Z,5.47
2023-04-15T02:33:56.816Z,4.30
2023-04-15T02:36:23.956Z,6.03
2023-04-15T02:38:50.790Z,8.37
2023-04-15T02:41:17.739Z,5.70
2023-04-15T02:43:44.427Z,5.20
2023-04-15T02:46:14.635Z,7.93
2023-04-15T02:48:41.845Z,7.00
2023-04-15T02:51:15.877Z,8.80
2023-04-15T02:53:42.873Z,7.00
2023-04-15T02:56:09.658Z,7.43
2023-04-15T02:58:36.569Z,5.80
2023-04-15T03:01:03.359Z,6.10
2023-04-15T03:03:30.201Z,5.93
2023-04-15T03:05:56.980Z,6.13
2023-04-15T03:08:23.690Z,7.60
2023-04-15T03:10:52.385Z,5.33
2023-04-15T03:13:19.664Z,6.10
2023-04-15T03:15:49.346Z,6.07
2023-04-15T03:18:16.102Z,7.43
2023-04-15T03:20:42.902Z,6.90
2023-04-15T03:23:09.682Z,5.77
2023-04-15T03:25:37.460Z,8.50
2023-04-15T03:28:04.301Z,6.57
2023-04-15T03:30:31.032Z,6.50
2023-04-15T03:32:57.723Z,5.77
2023-04-15T03:35:24.501Z,5.77
2023-04-15T03:37:51.247Z,5.20
2023-04-15T03:40:17.990Z,8.20
2023-04-15T03:42:45.064Z,5.70
2023-04-15T03:45:11.880Z,6.30
2023-04-15T03:47:38.668Z,5.47
2023-04-15T03:50:05.908Z,8.97
2023-04-15T03:52:32.542Z,6.03
2023-04-15T03:54:59.279Z,6.40
2023-04-15T03:57:26.415Z,5.47
2023-04-15T03:59:53.138Z,6.73
2023-04-15T04:02:19.992Z,7.10
2023-04-15T04:04:46.928Z,6.73
2023-04-15T04:07:17.054Z,7.83
2023-04-15T04:09:44.780Z,5.43
2023-04-15T04:12:12.376Z,5.60
2023-04-15T04:14:39.074Z,5.83
2023-04-15T04:17:06.140Z,6.43
2023-04-15T04:19:33.476Z,5.87
2023-04-15T04:22:00.573Z,6.70
2023-04-15T04:24:27.260Z,5.20
2023-04-15T04:26:54.268Z,6.20
2023-04-15T04:29:20.990Z,5.83
2023-04-15T04:31:48.820Z,5.47
2023-04-15T04:34:16.192Z,5.37
2023-04-15T04:36:42.944Z,6.63
2023-04-15T04:39:09.674Z,6.63
2023-04-15T04:41:36.352Z,10.50
2023-04-15T04:44:03.651Z,7.13
2023-04-15T04:46:30.412Z,5.90
2023-04-15T04:48:57.350Z,8.30
2023-04-15T04:51:24.101Z,6.80
2023-04-15T04:53:50.870Z,6.30
2023-04-15T04:56:17.670Z,7.33
2023-04-15T04:58:44.741Z,6.73
2023-04-15T05:01:13.055Z,12.90
2023-04-15T05:03:39.885Z,7.50
2023-04-15T05:06:07.379Z,8.03
2023-04-15T05:08:34.152Z,7.10
2023-04-15T05:11:00.829Z,7.47
2023-04-15T05:13:27.606Z,8.17
2023-04-15T05:15:54.500Z,6.97
2023-04-15T05:18:21.324Z,10.63
2023-04-15T05:20:50.083Z,6.43
2023-04-15T05:23:17.708Z,6.40
2023-04-15T05:25:44.462Z,6.43
2023-04-15T05:28:11.340Z,5.73
2023-04-15T05:30:38.117Z,8.77
2023-04-15T05:33:04.953Z,8.87
2023-04-15T05:35:31.638Z,7.70
2023-04-15T05:37:58.363Z,7.63
2023-04-15T05:40:25.237Z,5.93
2023-04-15T05:42:51.931Z,7.03
2023-04-15T05:45:18.919Z,5.67
2023-04-15T05:47:45.887Z,7.33
2023-04-15T05:50:13.154Z,5.87
2023-04-15T05:52:39.832Z,5.17
2023-04-15T05:55:07.010Z,5.60
2023-04-15T05:57:33.821Z,6.87
2023-04-15T06:00:00.574Z,7.37
2023-04-15T06:02:27.979Z,5.50
2023-04-15T06:04:54.949Z,5.90
2023-04-15T06:07:21.598Z,5.90
2023-04-15T06:09:48.795Z,7.03
2023-04-15T06:12:15.835Z,5.33
2023-04-15T06:14:42.644Z,5.37
2023-04-15T06:17:09.438Z,6.83
2023-04-15T06:19:38.759Z,5.63
2023-04-15T06:22:07.172Z,5.30
2023-04-15T06:24:37.022Z,5.17
2023-04-15T06:27:03.738Z,6.53
2023-04-15T06:29:30.729Z,3.67
2023-04-15T06:31:57.600Z,4.13
2023-04-15T06:34:24.462Z,3.23
2023-04-15T06:36:51.179Z,9.60
2023-04-15T06:39:17.972Z,7.13
2023-04-15T06:41:44.625Z,3.90
2023-04-15T06:44:11.440Z,3.47
2023-04-15T06:46:38.177Z,3.40
2023-04-15T06:49:05.545Z,4.97
2023-04-15T06:51:32.771Z,5.43
2023-04-15T06:53:59.586Z,4.43
2023-04-15T06:56:27.075Z,3.80
2023-04-15T06:58:53.942Z,4.10
2023-04-15T07:01:21.409Z,3.37
2023-04-15T07:03:48.155Z,4.63
2023-04-15T07:06:16.177Z,2.97
2023-04-15T07:08:42.975Z,2.70
2023-04-15T07:11:09.711Z,4.60
2023-04-15T07:13:36.830Z,6.37
2023-04-15T07:16:03.757Z,4.33
2023-04-15T07:18:30.692Z,3.50
2023-04-15T07:20:57.514Z,3.77
2023-04-15T07:23:24.358Z,5.70
2023-04-15T07:25:52.215Z,3.17
2023-04-15T07:28:18.977Z,9.57
2023-04-15T07:30:45.761Z,5.30
2023-04-15T07:33:12.716Z,3.37
2023-04-15T07:35:39.403Z,4.47
2023-04-15T07:38:06.135Z,3.00
2023-04-15T07:40:33.266Z,4.03
2023-04-15T07:43:00.015Z,3.00
2023-04-15T07:45:27.422Z,3.03
2023-04-15T07:47:56.088Z,2.87
2023-04-15T07:50:23.364Z,2.93
2023-04-15T07:52:53.264Z,3.73
2023-04-15T07:55:21.799Z,3.50
2023-04-15T07:57:48.876Z,2.87
2023-04-15T08:00:16.241Z,3.00
2023-04-15T08:02:43.854Z,2.73
2023-04-15T08:05:10.933Z,3.20
2023-04-15T08:07:39.516Z,4.00
2023-04-15T08:10:07.040Z,3.57
2023-04-15T08:12:33.798Z,3.63
2023-04-15T08:15:01.125Z,4.93
2023-04-15T08:17:28.318Z,4.13
2023-04-15T08:19:55.065Z,2.83
2023-04-15T08:22:22.400Z,3.80
2023-04-15T08:24:49.189Z,4.43
2023-04-15T08:27:15.862Z,4.33
2023-04-15T08:29:42.566Z,7.43
2023-04-15T08:32:09.673Z,3.63
2023-04-15T08:34:36.400Z,3.10
2023-04-15T08:37:03.585Z,3.00
2023-04-15T08:39:30.400Z,4.23
2023-04-15T08:42:03.543Z,4.00
2023-04-15T08:44:32.121Z,3.50
2023-04-15T08:47:01.379Z,4.20
2023-04-15T08:49:28.626Z,4.87
2023-04-15T08:51:56.664Z,5.77
2023-04-15T08:54:23.370Z,3.67
2023-04-15T08:56:51.968Z,4.13
2023-04-15T08:59:18.747Z,3.70
2023-04-15T09:01:46.021Z,3.70
2023-04-15T09:04:12.939Z,5.03
2023-04-15T09:06:40.111Z,9.67
2023-04-15T09:09:06.796Z,3.47
2023-04-15T09:11:34.000Z,3.53
2023-04-15T09:14:00.706Z,4.70
2023-04-15T09:16:27.695Z,4.30
2023-04-15T09:18:54.504Z,3.97
2023-04-15T09:21:21.339Z,6.13
2023-04-15T09:24:01.562Z,4.70
2023-04-15T09:26:35.739Z,6.70
2023-04-15T09:29:09.350Z,3.87
2023-04-15T09:31:36.992Z,3.83
2023-04-15T09:34:03.959Z,3.57
2023-04-15T09:36:36.843Z,3.53
2023-04-15T09:39:03.938Z,4.13
2023-04-15T09:41:30.612Z,7.10
2023-04-15T09:43:57.427Z,3.60
2023-04-15T09:46:43.811Z,5.63
2023-04-15T09:49:11.466Z,3.47
2023-04-15T09:51:38.487Z,3.83
2023-04-15T09:54:05.409Z,4.37
2023-04-15T09:56:37.787Z,5.23
2023-04-15T09:59:08.230Z,4.90
2023-04-15T10:01:36.054Z,7.50
2023-04-15T10:04:06.846Z,6.40
2023-04-15T10:06:33.986Z,4.50
2023-04-15T10:09:00.756Z,5.67
2023-04-15T10:11:31.714Z,5.00
2023-04-15T10:13:58.850Z,4.67
2023-04-15T10:16:27.856Z,4.50
2023-04-15T10:18:55.632Z,4.53
2023-04-15T10:21:23.666Z,5.10
2023-04-15T10:23:51.424Z,5.27
2023-04-15T10:26:18.579Z,5.13
2023-04-15T10:28:47.325Z,5.07
2023-04-15T10:31:15.039Z,5.43
2023-04-15T10:33:42.649Z,6.83
2023-04-15T10:36:09.331Z,6.10
2023-04-15T10:38:45.747Z,6.77
2023-04-15T10:41:25.873Z,5.73
2023-04-15T10:44:11.827Z,7.43
2023-04-15T10:46:47.419Z,6.07
2023-04-15T10:49:24.392Z,7.10
2023-04-15T10:51:57.802Z,5.37
2023-04-15T10:54:24.557Z,5.10
2023-04-15T10:56:52.171Z,4.53
2023-04-15T10:59:19.958Z,4.67
2023-04-15T11:01:52.913Z,5.67
2023-04-15T11:04:55.666Z,2.83
2023-04-15T11:07:38.595Z,2.03
2023-04-15T11:10:25.622Z,5.93
2023-04-15T11:13:02.464Z,4.10
2023-04-15T11:15:41.957Z,2.40
2023-04-15T11:18:17.921Z,4.07
2023-04-15T11:20:50.689Z,1.27
2023-04-15T11:23:27.564Z,2.20
2023-04-15T11:25:55.517Z,1.57
2023-04-15T11:28:22.648Z,3.27
2023-04-15T11:30:49.494Z,2.20
2023-04-15T11:33:16.296Z,1.80
2023-04-15T11:35:43.081Z,2.80
2023-04-15T11:38:13.840Z,1.83
2023-04-15T11:40:41.007Z,1.60
2023-04-15T11:43:15.080Z,10.27
2023-04-15T11:45:48.708Z,2.80
2023-04-15T11:48:15.654Z,3.70
2023-04-15T11:50:42.302Z,2.90
2023-04-15T11:53:12.902Z,5.40
2023-04-15T11:55:44.667Z,3.23
2023-04-15T11:58:18.693Z,3.37
2023-04-15T12:00:57.102Z,3.77
2023-04-15T12:03:28.590Z,3.67
2023-04-15T12:06:16.842Z,4.67
2023-04-15T12:09:00.591Z,3.87
2023-04-15T12:11:27.306Z,3.50
2023-04-15T12:13:56.147Z,3.37
2023-04-15T12:16:23.415Z,3.10
2023-04-15T12:18:56.119Z,4.50
2023-04-15T12:21:23.918Z,4.53
2023-04-15T12:23:54.609Z,4.90
2023-04-15T12:26:29.006Z,5.23
2023-04-15T12:29:07.093Z,8.00
2023-04-15T12:31:37.345Z,5.13
2023-04-15T12:34:04.990Z,4.50
2023-04-15T12:36:36.337Z,7.70
2023-04-15T12:39:04.605Z,4.40
2023-04-15T12:41:31.982Z,4.37
2023-04-15T12:43:59.103Z,4.20
2023-04-15T12:46:26.105Z,4.90
2023-04-15T12:48:53.404Z,3.60
2023-04-15T12:51:21.791Z,4.30
2023-04-15T12:53:49.678Z,3.57
2023-04-15T12:56:19.835Z,3.60
2023-04-15T12:58:46.546Z,3.37
2023-04-15T13:01:13.247Z,3.10
2023-04-15T13:03:40.569Z,3.20
2023-04-15T13:06:08.220Z,3.27
2023-04-15T13:08:38.435Z,2.90
2023-04-15T13:11:07.282Z,5.60
2023-04-15T13:13:34.118Z,2.60
2023-04-15T13:16:00.880Z,3.33
2023-04-15T13:18:27.799Z,2.60
2023-04-15T13:20:55.394Z,4.40
2023-04-15T13:23:22.037Z,4.00
2023-04-15T13:25:48.853Z,4.30
2023-04-15T13:28:15.744Z,3.83
2023-04-15T13:30:44.068Z,3.80
2023-04-15T13:33:11.341Z,4.23
2023-04-15T13:35:38.174Z,4.20
2023-04-15T13:38:04.871Z,3.90
2023-04-15T13:40:32.070Z,3.93
2023-04-15T13:42:59.901Z,3.73
2023-04-15T13:45:27.006Z,5.40
2023-04-15T13:47:53.798Z,4.10
2023-04-15T13:50:20.722Z,3.80
2023-04-15T13:52:47.563Z,4.50
2023-04-15T13:55:23.051Z,4.30
2023-04-15T13:57:50.711Z,6.33
2023-04-15T14:00:17.564Z,4.43
2023-04-15T14:02:44.380Z,3.57
2023-04-15T14:05:11.610Z,3.20
2023-04-15T14:07:38.817Z,4.07
2023-04-15T14:10:05.990Z,3.37
2023-04-15T14:12:32.933Z,3.30
2023-04-15T14:14:59.664Z,3.20
2023-04-15T14:17:26.409Z,3.40
2023-04-15T14:19:53.199Z,4.03
2023-04-15T14:22:20.024Z,3.80
2023-04-15T14:24:48.799Z,6.70
2023-04-15T14:27:16.486Z,4.43
2023-04-15T14:29:43.187Z,5.80
2023-04-15T14:32:12.141Z,6.80
2023-04-15T14:34:40.159Z,6.33
2023-04-15T14:37:07.552Z,6.10
2023-04-15T14:40:24.341Z,5.10
2023-04-15T14:42:51.486Z,3.47
2023-04-15T14:45:18.397Z,3.53
2023-04-15T14:47:45.672Z,3.23
2023-04-15T14:50:12.341Z,3.17
2023-04-15T14:52:39.193Z,3.90
2023-04-15T14:55:10.376Z,4.30
2023-04-15T14:57:40.474Z,5.40
2023-04-15T15:00:07.972Z,5.47
2023-04-15T15:02:39.128Z,6.50
2023-04-15T15:05:07.552Z,3.97
2023-04-15T15:07:34.456Z,3.53
2023-04-15T15:10:01.212Z,4.40
2023-04-15T15:12:27.946Z,3.50
2023-04-15T15:14:55.454Z,3.77
2023-04-15T15:17:22.369Z,2.80
2023-04-15T15:19:49.268Z,3.47
2023-04-15T15:22:15.937Z,3.33
2023-04-15T15:24:42.787Z,3.90
2023-04-15T15:27:10.318Z,4.23
2023-04-15T15:29:37.873Z,3.30
2023-04-15T15:32:04.706Z,5.10
2023-04-15T15:34:31.432Z,4.23
2023-04-15T15:36:58.119Z,7.87
2023-04-15T15:39:24.872Z,5.00
2023-04-15T15:41:51.997Z,6.50
2023-04-15T15:44:18.730Z,9.27
2023-04-15T15:46:45.691Z,4.67
2023-04-15T15:49:12.615Z,6.67
2023-04-15T15:51:39.317Z,4.80
2023-04-15T15:54:06.017Z,4.57
2023-04-15T15:56:33.242Z,6.80
2023-04-15T15:58:59.990Z,5.33
2023-04-15T16:01:26.762Z,5.80
2023-04-15T16:03:54.307Z,4.97
2023-04-15T16:06:21.112Z,6.10
2023-04-15T16:08:47.868Z,6.30
2023-04-15T16:11:14.848Z,6.13
2023-04-15T16:13:41.581Z,6.77
2023-04-15T16:16:08.281Z,6.77
2023-04-15T16:18:35.402Z,6.83
2023-04-15T16:21:02.288Z,6.57
2023-04-15T16:23:29.474Z,6.63
2023-04-15T16:25:56.281Z,10.27
2023-04-15T16:28:26.407Z,6.80
2023-04-15T16:30:54.212Z,6.37
2023-04-15T16:33:21.168Z,7.30
2023-04-15T16:35:47.969Z,7.47
2023-04-15T16:38:14.692Z,8.43
2023-04-15T16:40:41.353Z,6.97
2023-04-15T16:43:11.105Z,7.30
2023-04-15T16:45:37.980Z,8.00
2023-04-15T16:48:04.911Z,7.50
2023-04-15T16:50:31.760Z,8.00
2023-04-15T16:52:58.902Z,10.43
2023-04-15T16:55:26.076Z,8.10
2023-04-15T16:58:01.485Z,7.90
2023-04-15T17:00:31.180Z,7.73
2023-04-15T17:02:58.592Z,8.47
2023-04-15T17:05:27.560Z,11.10
2023-04-15T17:07:54.712Z,11.27
2023-04-15T17:10:21.530Z,13.67
2023-04-15T17:12:48.279Z,16.03
2023-04-15T17:15:14.946Z,16.90
2023-04-15T17:17:41.752Z,25.63
2023-04-15T17:20:08.713Z,28.67
2023-04-15T17:22:35.445Z,7.43
2023-04-15T17:25:02.684Z,6.70
2023-04-15T17:31:17.271Z,6.70
2023-04-15T17:33:59.853Z,7.07
2023-04-15T17:36:31.188Z,6.77
2023-04-15T17:38:58.241Z,7.60
2023-04-15T17:41:24.921Z,7.27
2023-04-15T17:43:51.624Z,8.23
2023-04-15T17:46:19.456Z,6.47
2023-04-15T17:48:46.758Z,9.67
2023-04-15T17:51:13.475Z,6.53
2023-04-15T17:53:40.203Z,7.23
2023-04-15T17:56:06.877Z,6.97
2023-04-15T17:58:33.649Z,3.83
2023-04-15T18:01:03.367Z,4.47
2023-04-15T18:03:30.201Z,4.07
2023-04-15T18:05:57.056Z,5.30
2023-04-15T18:08:23.693Z,4.10
2023-04-15T18:10:50.341Z,3.77
2023-04-15T18:13:19.884Z,3.90
2023-04-15T18:15:48.083Z,3.83
2023-04-15T18:18:14.923Z,3.30
2023-04-15T18:20:41.608Z,3.83
2023-04-15T18:23:08.771Z,3.97
2023-04-15T18:25:38.104Z,2.93
2023-04-15T18:28:05.351Z,3.27
2023-04-15T18:30:32.297Z,2.33
2023-04-15T18:32:59.105Z,2.63
2023-04-15T18:35:27.885Z,3.33
2023-04-15T18:37:54.671Z,2.23
2023-04-15T18:40:21.357Z,4.40
2023-04-15T18:42:48.068Z,2.77
2023-04-15T18:45:15.154Z,3.90
2023-04-15T18:47:42.383Z,3.23
2023-04-15T18:50:09.205Z,2.87
2023-04-15T18:52:36.134Z,2.23
2023-04-15T18:55:03.431Z,1.87
2023-04-15T18:57:34.934Z,1.63
2023-04-15T19:00:04.662Z,1.53
2023-04-15T19:02:33.997Z,1.60
2023-04-15T19:05:04.434Z,1.93
2023-04-15T19:07:31.506Z,1.67
2023-04-15T19:09:58.576Z,1.70
2023-04-15T19:12:25.250Z,2.20
2023-04-15T19:14:52.058Z,2.27
2023-04-15T19:17:18.770Z,2.43
2023-04-15T19:19:45.619Z,2.03
2023-04-15T19:22:12.394Z,2.00
2023-04-15T19:24:40.756Z,2.67
2023-04-15T19:27:07.441Z,2.57
2023-04-15T19:29:34.434Z,2.50
2023-04-15T19:32:01.185Z,3.17
2023-04-15T19:34:30.873Z,3.37
2023-04-15T19:36:57.655Z,3.40
2023-04-15T19:39:24.391Z,4.97
2023-04-15T19:41:51.797Z,3.40
2023-04-15T19:44:19.823Z,4.07
2023-04-15T19:46:49.861Z,4.10
2023-04-15T19:49:16.960Z,4.00
2023-04-15T19:51:43.683Z,4.13
2023-04-15T19:54:10.494Z,5.90
2023-04-15T19:56:37.154Z,4.07
2023-04-15T19:59:04.085Z,3.90
2023-04-15T20:01:31.507Z,3.60
2023-04-15T20:03:58.527Z,3.10
2023-04-15T20:06:27.459Z,2.53
2023-04-15T20:08:54.177Z,3.60
2023-04-15T20:11:22.210Z,2.90
2023-04-15T20:13:48.959Z,2.73
2023-04-15T20:16:16.024Z,3.00
2023-04-15T20:18:42.854Z,6.23
2023-04-15T20:21:09.600Z,2.87
2023-04-15T20:23:37.023Z,3.10
2023-04-15T20:26:04.199Z,2.47
2023-04-15T20:28:31.029Z,2.40
2023-04-15T20:30:58.013Z,2.80
2023-04-15T20:33:27.172Z,3.10
2023-04-15T20:35:54.635Z,3.30
2023-04-15T20:38:21.891Z,2.80
2023-04-15T20:40:48.581Z,5.93
2023-04-15T20:43:15.436Z,5.73
2023-04-15T20:45:42.123Z,3.40
2023-04-15T20:51:57.359Z,4.17
2023-04-15T20:54:24.466Z,5.63
2023-04-15T20:56:51.100Z,4.93
2023-04-15T20:59:17.801Z,4.10
2023-04-15T21:01:45.986Z,4.30
2023-04-15T21:04:12.692Z,4.27
2023-04-15T21:06:39.326Z,4.70
2023-04-15T21:09:06.353Z,4.90
2023-04-15T21:11:46.473Z,4.27
2023-04-15T21:14:19.853Z,3.43
2023-04-15T21:16:46.565Z,3.57
2023-04-15T21:19:13.262Z,3.43
2023-04-15T21:21:40.001Z,3.70
2023-04-15T21:24:10.084Z,3.90
2023-04-15T21:26:36.830Z,3.87
2023-04-15T21:29:03.866Z,3.60
2023-04-15T21:31:30.921Z,3.23
2023-04-15T21:33:57.619Z,3.90
2023-04-15T21:36:24.373Z,3.23
2023-04-15T21:38:51.007Z,3.70
2023-04-15T21:45:00.484Z,3.53
2023-04-15T21:47:27.587Z,4.87
2023-04-15T21:49:54.895Z,3.70
2023-04-15T21:52:21.594Z,2.83
2023-04-15T21:54:48.313Z,2.77
2023-04-15T21:57:15.392Z,5.03
2023-04-15T21:59:42.080Z,3.73
2023-04-15T22:02:08.803Z,4.00
2023-04-15T22:04:35.559Z,3.57
2023-04-15T22:07:02.587Z,3.93
2023-04-15T22:09:29.317Z,4.63
2023-04-15T22:11:56.030Z,4.83
2023-04-15T22:14:22.842Z,5.73
2023-04-15T22:16:49.545Z,4.90
2023-04-15T22:19:16.277Z,5.43
2023-04-15T22:21:43.023Z,5.17
2023-04-15T22:24:38.946Z,6.60
2023-04-15T22:26:56.792Z,5.27
2023-04-15T22:29:23.483Z,6.23
2023-04-15T22:31:50.462Z,6.43
2023-04-15T22:34:21.364Z,7.53
2023-04-15T22:36:48.859Z,7.67
2023-04-15T22:39:15.709Z,7.20
2023-04-15T22:41:42.512Z,7.47
2023-04-15T22:44:09.216Z,6.50
2023-04-15T22:46:36.100Z,7.50
2023-04-15T22:49:03.035Z,6.43
2023-04-15T22:51:29.842Z,6.57
2023-04-15T22:53:56.581Z,6.47
2023-04-15T22:56:23.388Z,6.87
2023-04-15T22:58:50.200Z,5.83
2023-04-15T23:01:17.841Z,5.10
2023-04-15T23:03:56.945Z,5.97
2023-04-15T23:06:31.829Z,5.10
2023-04-15T23:08:58.696Z,5.63
2023-04-15T23:11:25.446Z,5.87
2023-04-15T23:13:53.109Z,4.47
2023-04-15T23:16:19.882Z,5.40
2023-04-15T23:18:46.557Z,5.30
2023-04-15T23:21:13.235Z,5.37
2023-04-15T23:23:39.867Z,4.60
2023-04-15T23:26:06.603Z,4.10
2023-04-15T23:28:33.244Z,4.40
2023-04-15T23:31:00.701Z,4.23
2023-04-15T23:33:27.419Z,5.13
2023-04-15T23:35:54.099Z,4.43
2023-04-15T23:38:20.791Z,4.13
2023-04-15T23:40:47.498Z,4.70
2023-04-15T23:43:14.103Z,3.93
2023-04-15T23:45:40.770Z,4.40
2023-04-15T23:48:07.372Z,4.40
2023-04-15T23:50:34.289Z,4.80
2023-04-15T23:53:01.088Z,4.10
2023-04-15T23:55:27.787Z,4.33
2023-04-15T23:57:54.474Z,4.50
